sensor_id;sensor_type;location;lat;lon;timestamp;P1;durP1;ratioP1;P2;durP2;ratioP2
52618;SDS011;38513;53.234;6.568;2023-05-10T00:01:46;22.65;;;18.45;;
52618;SDS011;38513;53.234;6.568;2023-05-10T00:04:12;22.98;;;18.10;;
52618;SDS011;38513;53.234;6.568;2023-05-10T00:06:38;22.45;;;17.90;;
52618;SDS011;38513;53.234;6.568;2023-05-10T00:09:05;23.53;;;18.37;;
52618;SDS011;38513;53.234;6.568;2023-05-10T00:11:31;20.88;;;16.73;;
52618;SDS011;38513;53.234;6.568;2023-05-10T00:13:57;21.08;;;16.48;;
52618;SDS011;38513;53.234;6.568;2023-05-10T00:16:23;22.45;;;16.67;;
52618;SDS011;38513;53.234;6.568;2023-05-10T00:18:50;22.70;;;16.42;;
52618;SDS011;38513;53.234;6.568;2023-05-10T00:21:16;21.33;;;16.15;;
52618;SDS011;38513;53.234;6.568;2023-05-10T00:23:42;21.20;;;15.95;;
52618;SDS011;38513;53.234;6.568;2023-05-10T00:26:08;21.10;;;16.08;;
52618;SDS011;38513;53.234;6.568;2023-05-10T00:28:35;21.70;;;16.00;;
52618;SDS011;38513;53.234;6.568;2023-05-10T00:31:01;20.67;;;15.25;;
52618;SDS011;38513;53.234;6.568;2023-05-10T00:33:27;19.90;;;14.52;;
52618;SDS011;38513;53.234;6.568;2023-05-10T00:35:54;18.65;;;14.43;;
52618;SDS011;38513;53.234;6.568;2023-05-10T00:38:20;23.48;;;15.88;;
52618;SDS011;38513;53.234;6.568;2023-05-10T00:40:46;19.80;;;14.07;;
52618;SDS011;38513;53.234;6.568;2023-05-10T00:43:13;18.90;;;13.83;;
52618;SDS011;38513;53.234;6.568;2023-05-10T00:45:39;17.20;;;13.02;;
52618;SDS011;38513;53.234;6.568;2023-05-10T00:48:06;16.05;;;12.63;;
52618;SDS011;38513;53.234;6.568;2023-05-10T00:50:33;17.85;;;13.02;;
52618;SDS011;38513;53.234;6.568;2023-05-10T00:53:00;18.10;;;13.65;;
52618;SDS011;38513;53.234;6.568;2023-05-10T00:55:27;18.15;;;12.85;;
52618;SDS011;38513;53.234;6.568;2023-05-10T00:57:56;19.02;;;13.77;;
52618;SDS011;38513;53.234;6.568;2023-05-10T01:00:22;19.35;;;13.98;;
52618;SDS011;38513;53.234;6.568;2023-05-10T01:02:48;20.00;;;14.10;;
52618;SDS011;38513;53.234;6.568;2023-05-10T01:05:18;17.90;;;13.30;;
52618;SDS011;38513;53.234;6.568;2023-05-10T01:07:44;18.50;;;13.75;;
52618;SDS011;38513;53.234;6.568;2023-05-10T01:10:11;19.27;;;13.95;;
52618;SDS011;38513;53.234;6.568;2023-05-10T01:12:38;19.35;;;13.95;;
52618;SDS011;38513;53.234;6.568;2023-05-10T01:15:05;16.67;;;12.88;;
52618;SDS011;38513;53.234;6.568;2023-05-10T01:17:33;18.50;;;13.73;;
52618;SDS011;38513;53.234;6.568;2023-05-10T01:20:01;19.23;;;14.45;;
52618;SDS011;38513;53.234;6.568;2023-05-10T01:32:52;20.42;;;14.85;;
52618;SDS011;38513;53.234;6.568;2023-05-10T01:35:26;20.23;;;14.93;;
52618;SDS011;38513;53.234;6.568;2023-05-10T01:37:59;21.67;;;14.83;;
52618;SDS011;38513;53.234;6.568;2023-05-10T01:40:36;18.73;;;14.38;;
52618;SDS011;38513;53.234;6.568;2023-05-10T01:43:04;18.80;;;13.88;;
52618;SDS011;38513;53.234;6.568;2023-05-10T01:45:45;18.92;;;14.27;;
52618;SDS011;38513;53.234;6.568;2023-05-10T01:48:13;19.02;;;14.27;;
52618;SDS011;38513;53.234;6.568;2023-05-10T01:50:41;19.13;;;14.65;;
52618;SDS011;38513;53.234;6.568;2023-05-10T01:53:09;18.52;;;13.20;;
52618;SDS011;38513;53.234;6.568;2023-05-10T01:55:44;21.05;;;15.15;;
52618;SDS011;38513;53.234;6.568;2023-05-10T01:58:29;20.52;;;15.10;;
52618;SDS011;38513;53.234;6.568;2023-05-10T02:00:56;18.85;;;14.05;;
52618;SDS011;38513;53.234;6.568;2023-05-10T02:03:24;19.75;;;14.95;;
52618;SDS011;38513;53.234;6.568;2023-05-10T02:05:51;20.23;;;14.93;;
52618;SDS011;38513;53.234;6.568;2023-05-10T02:08:22;21.73;;;15.73;;
52618;SDS011;38513;53.234;6.568;2023-05-10T02:10:49;19.85;;;14.82;;
52618;SDS011;38513;53.234;6.568;2023-05-10T02:13:16;17.65;;;13.70;;
52618;SDS011;38513;53.234;6.568;2023-05-10T02:15:42;16.92;;;13.75;;
52618;SDS011;38513;53.234;6.568;2023-05-10T02:18:11;18.20;;;13.90;;
52618;SDS011;38513;53.234;6.568;2023-05-10T02:20:38;19.15;;;13.95;;
52618;SDS011;38513;53.234;6.568;2023-05-10T02:23:05;17.37;;;13.73;;
52618;SDS011;38513;53.234;6.568;2023-05-10T02:25:36;18.25;;;13.98;;
52618;SDS011;38513;53.234;6.568;2023-05-10T02:28:04;18.23;;;14.10;;
52618;SDS011;38513;53.234;6.568;2023-05-10T02:30:33;19.15;;;14.43;;
52618;SDS011;38513;53.234;6.568;2023-05-10T02:33:00;18.40;;;14.45;;
52618;SDS011;38513;53.234;6.568;2023-05-10T02:35:28;19.20;;;14.10;;
52618;SDS011;38513;53.234;6.568;2023-05-10T02:37:54;18.65;;;14.73;;
52618;SDS011;38513;53.234;6.568;2023-05-10T02:40:22;18.65;;;14.63;;
52618;SDS011;38513;53.234;6.568;2023-05-10T02:42:48;21.27;;;15.23;;
52618;SDS011;38513;53.234;6.568;2023-05-10T02:45:18;21.02;;;15.57;;
52618;SDS011;38513;53.234;6.568;2023-05-10T02:47:45;21.83;;;15.63;;
52618;SDS011;38513;53.234;6.568;2023-05-10T02:50:11;23.35;;;16.55;;
52618;SDS011;38513;53.234;6.568;2023-05-10T02:52:47;25.70;;;17.02;;
52618;SDS011;38513;53.234;6.568;2023-05-10T02:55:14;25.83;;;17.67;;
52618;SDS011;38513;53.234;6.568;2023-05-10T02:57:43;28.02;;;18.85;;
52618;SDS011;38513;53.234;6.568;2023-05-10T03:00:09;25.13;;;17.92;;
52618;SDS011;38513;53.234;6.568;2023-05-10T03:02:39;30.33;;;18.33;;
52618;SDS011;38513;53.234;6.568;2023-05-10T03:05:05;28.17;;;18.75;;
52618;SDS011;38513;53.234;6.568;2023-05-10T03:07:32;30.67;;;19.20;;
52618;SDS011;38513;53.234;6.568;2023-05-10T03:09:58;28.15;;;18.98;;
52618;SDS011;38513;53.234;6.568;2023-05-10T03:17:45;29.40;;;19.70;;
52618;SDS011;38513;53.234;6.568;2023-05-10T03:20:12;28.73;;;19.37;;
52618;SDS011;38513;53.234;6.568;2023-05-10T03:22:44;30.35;;;20.05;;
52618;SDS011;38513;53.234;6.568;2023-05-10T03:25:11;33.80;;;21.48;;
52618;SDS011;38513;53.234;6.568;2023-05-10T03:27:39;32.17;;;21.55;;
52618;SDS011;38513;53.234;6.568;2023-05-10T03:30:07;34.33;;;22.80;;
52618;SDS011;38513;53.234;6.568;2023-05-10T03:32:34;32.97;;;22.40;;
52618;SDS011;38513;53.234;6.568;2023-05-10T03:35:00;32.33;;;22.50;;
52618;SDS011;38513;53.234;6.568;2023-05-10T03:37:27;33.85;;;23.25;;
52618;SDS011;38513;53.234;6.568;2023-05-10T03:39:55;35.95;;;23.13;;
52618;SDS011;38513;53.234;6.568;2023-05-10T03:42:21;34.63;;;22.15;;
52618;SDS011;38513;53.234;6.568;2023-05-10T03:44:48;34.28;;;22.35;;
52618;SDS011;38513;53.234;6.568;2023-05-10T03:47:18;32.77;;;21.63;;
52618;SDS011;38513;53.234;6.568;2023-05-10T03:49:45;34.47;;;22.55;;
52618;SDS011;38513;53.234;6.568;2023-05-10T03:52:11;38.08;;;23.38;;
52618;SDS011;38513;53.234;6.568;2023-05-10T03:54:37;39.47;;;24.02;;
52618;SDS011;38513;53.234;6.568;2023-05-10T03:57:03;41.25;;;25.48;;
52618;SDS011;38513;53.234;6.568;2023-05-10T03:59:30;37.30;;;23.00;;
52618;SDS011;38513;53.234;6.568;2023-05-10T04:01:56;32.88;;;21.27;;
52618;SDS011;38513;53.234;6.568;2023-05-10T04:04:25;28.35;;;19.27;;
52618;SDS011;38513;53.234;6.568;2023-05-10T04:06:52;30.58;;;20.20;;
52618;SDS011;38513;53.234;6.568;2023-05-10T04:09:21;27.60;;;17.70;;
52618;SDS011;38513;53.234;6.568;2023-05-10T04:11:47;24.45;;;16.35;;
52618;SDS011;38513;53.234;6.568;2023-05-10T04:14:13;25.73;;;16.23;;
52618;SDS011;38513;53.234;6.568;2023-05-10T04:16:40;21.40;;;15.52;;
52618;SDS011;38513;53.234;6.568;2023-05-10T04:19:06;20.45;;;13.85;;
52618;SDS011;38513;53.234;6.568;2023-05-10T04:21:32;19.00;;;13.48;;
52618;SDS011;38513;53.234;6.568;2023-05-10T04:23:58;19.40;;;13.90;;
52618;SDS011;38513;53.234;6.568;2023-05-10T04:26:25;18.95;;;13.07;;
52618;SDS011;38513;53.234;6.568;2023-05-10T04:28:51;18.58;;;12.63;;
52618;SDS011;38513;53.234;6.568;2023-05-10T04:31:17;17.67;;;12.77;;
52618;SDS011;38513;53.234;6.568;2023-05-10T04:33:43;18.80;;;12.45;;
52618;SDS011;38513;53.234;6.568;2023-05-10T04:36:10;17.35;;;12.93;;
52618;SDS011;38513;53.234;6.568;2023-05-10T04:38:36;17.90;;;13.48;;
52618;SDS011;38513;53.234;6.568;2023-05-10T04:41:04;18.48;;;13.32;;
52618;SDS011;38513;53.234;6.568;2023-05-10T04:43:30;17.42;;;13.23;;
52618;SDS011;38513;53.234;6.568;2023-05-10T04:45:57;15.55;;;12.13;;
52618;SDS011;38513;53.234;6.568;2023-05-10T04:48:23;18.50;;;12.90;;
52618;SDS011;38513;53.234;6.568;2023-05-10T04:50:52;17.65;;;12.93;;
52618;SDS011;38513;53.234;6.568;2023-05-10T04:53:21;18.85;;;12.63;;
52618;SDS011;38513;53.234;6.568;2023-05-10T04:55:47;19.27;;;13.07;;
52618;SDS011;38513;53.234;6.568;2023-05-10T04:58:14;17.90;;;12.77;;
52618;SDS011;38513;53.234;6.568;2023-05-10T05:00:42;16.80;;;12.77;;
52618;SDS011;38513;53.234;6.568;2023-05-10T05:03:12;16.80;;;12.68;;
52618;SDS011;38513;53.234;6.568;2023-05-10T05:05:38;17.33;;;13.40;;
52618;SDS011;38513;53.234;6.568;2023-05-10T05:08:07;18.52;;;13.20;;
52618;SDS011;38513;53.234;6.568;2023-05-10T05:10:33;16.58;;;12.95;;
52618;SDS011;38513;53.234;6.568;2023-05-10T05:13:00;16.73;;;12.87;;
52618;SDS011;38513;53.234;6.568;2023-05-10T05:15:26;17.58;;;13.23;;
52618;SDS011;38513;53.234;6.568;2023-05-10T05:17:53;17.17;;;12.68;;
52618;SDS011;38513;53.234;6.568;2023-05-10T05:20:19;16.08;;;12.43;;
52618;SDS011;38513;53.234;6.568;2023-05-10T05:22:45;16.63;;;11.93;;
52618;SDS011;38513;53.234;6.568;2023-05-10T05:25:11;17.38;;;12.35;;
52618;SDS011;38513;53.234;6.568;2023-05-10T05:27:40;15.80;;;12.00;;
52618;SDS011;38513;53.234;6.568;2023-05-10T05:30:08;16.20;;;11.95;;
52618;SDS011;38513;53.234;6.568;2023-05-10T05:32:35;17.27;;;12.45;;
52618;SDS011;38513;53.234;6.568;2023-05-10T05:35:01;17.52;;;12.45;;
52618;SDS011;38513;53.234;6.568;2023-05-10T05:37:27;17.97;;;12.37;;
52618;SDS011;38513;53.234;6.568;2023-05-10T05:39:53;17.10;;;11.85;;
52618;SDS011;38513;53.234;6.568;2023-05-10T05:42:20;16.77;;;11.85;;
52618;SDS011;38513;53.234;6.568;2023-05-10T05:44:46;17.30;;;11.45;;
52618;SDS011;38513;53.234;6.568;2023-05-10T05:47:12;17.27;;;11.93;;
52618;SDS011;38513;53.234;6.568;2023-05-10T05:49:38;16.77;;;11.35;;
52618;SDS011;38513;53.234;6.568;2023-05-10T05:52:11;16.67;;;11.45;;
52618;SDS011;38513;53.234;6.568;2023-05-10T05:54:37;15.45;;;10.73;;
52618;SDS011;38513;53.234;6.568;2023-05-10T05:57:03;17.15;;;10.68;;
52618;SDS011;38513;53.234;6.568;2023-05-10T05:59:30;14.95;;;9.50;;
52618;SDS011;38513;53.234;6.568;2023-05-10T06:01:56;11.77;;;7.80;;
52618;SDS011;38513;53.234;6.568;2023-05-10T06:04:28;12.00;;;6.80;;
52618;SDS011;38513;53.234;6.568;2023-05-10T06:06:54;9.00;;;4.97;;
52618;SDS011;38513;53.234;6.568;2023-05-10T06:09:20;8.32;;;4.90;;
52618;SDS011;38513;53.234;6.568;2023-05-10T06:11:48;8.30;;;4.50;;
52618;SDS011;38513;53.234;6.568;2023-05-10T06:14:14;7.65;;;4.50;;
52618;SDS011;38513;53.234;6.568;2023-05-10T06:16:41;6.90;;;4.07;;
52618;SDS011;38513;53.234;6.568;2023-05-10T06:19:08;6.10;;;3.20;;
52618;SDS011;38513;53.234;6.568;2023-05-10T06:21:37;5.00;;;2.50;;
52618;SDS011;38513;53.234;6.568;2023-05-10T06:24:03;5.50;;;3.03;;
52618;SDS011;38513;53.234;6.568;2023-05-10T06:26:31;5.57;;;3.25;;
52618;SDS011;38513;53.234;6.568;2023-05-10T06:28:59;6.00;;;3.45;;
52618;SDS011;38513;53.234;6.568;2023-05-10T06:31:27;6.53;;;4.20;;
52618;SDS011;38513;53.234;6.568;2023-05-10T06:33:54;7.78;;;5.03;;
52618;SDS011;38513;53.234;6.568;2023-05-10T06:36:29;9.65;;;6.13;;
52618;SDS011;38513;53.234;6.568;2023-05-10T06:39:02;15.02;;;10.27;;
52618;SDS011;38513;53.234;6.568;2023-05-10T06:41:28;23.75;;;16.30;;
52618;SDS011;38513;53.234;6.568;2023-05-10T06:44:10;25.88;;;16.90;;
52618;SDS011;38513;53.234;6.568;2023-05-10T06:46:49;27.40;;;18.15;;
52618;SDS011;38513;53.234;6.568;2023-05-10T06:49:28;30.15;;;18.67;;
52618;SDS011;38513;53.234;6.568;2023-05-10T06:51:57;26.65;;;18.30;;
52618;SDS011;38513;53.234;6.568;2023-05-10T06:54:24;26.73;;;18.92;;
52618;SDS011;38513;53.234;6.568;2023-05-10T06:57:24;30.13;;;20.45;;
52618;SDS011;38513;53.234;6.568;2023-05-10T06:59:46;34.35;;;21.65;;
52618;SDS011;38513;53.234;6.568;2023-05-10T07:02:16;33.03;;;21.33;;
52618;SDS011;38513;53.234;6.568;2023-05-10T07:04:46;30.73;;;20.25;;
52618;SDS011;38513;53.234;6.568;2023-05-10T07:07:13;31.02;;;20.80;;
52618;SDS011;38513;53.234;6.568;2023-05-10T07:09:42;29.55;;;19.00;;
52618;SDS011;38513;53.234;6.568;2023-05-10T07:12:11;27.17;;;18.23;;
52618;SDS011;38513;53.234;6.568;2023-05-10T07:14:37;27.00;;;18.30;;
52618;SDS011;38513;53.234;6.568;2023-05-10T07:17:03;25.40;;;16.27;;
52618;SDS011;38513;53.234;6.568;2023-05-10T07:19:32;24.17;;;16.17;;
52618;SDS011;38513;53.234;6.568;2023-05-10T07:21:58;23.75;;;14.98;;
52618;SDS011;38513;53.234;6.568;2023-05-10T07:24:25;19.40;;;13.93;;
52618;SDS011;38513;53.234;6.568;2023-05-10T07:26:51;18.13;;;12.40;;
52618;SDS011;38513;53.234;6.568;2023-05-10T07:29:18;17.42;;;11.55;;
52618;SDS011;38513;53.234;6.568;2023-05-10T07:31:47;17.55;;;11.32;;
52618;SDS011;38513;53.234;6.568;2023-05-10T07:34:13;13.35;;;9.15;;
52618;SDS011;38513;53.234;6.568;2023-05-10T07:36:39;13.13;;;7.90;;
52618;SDS011;38513;53.234;6.568;2023-05-10T07:39:05;10.52;;;7.03;;
52618;SDS011;38513;53.234;6.568;2023-05-10T07:41:32;10.38;;;7.10;;
52618;SDS011;38513;53.234;6.568;2023-05-10T07:43:58;11.13;;;7.50;;
52618;SDS011;38513;53.234;6.568;2023-05-10T07:46:24;9.43;;;7.10;;
52618;SDS011;38513;53.234;6.568;2023-05-10T07:48:50;9.85;;;7.20;;
52618;SDS011;38513;53.234;6.568;2023-05-10T07:51:17;8.90;;;6.47;;
52618;SDS011;38513;53.234;6.568;2023-05-10T07:53:43;9.80;;;6.32;;
52618;SDS011;38513;53.234;6.568;2023-05-10T07:56:22;7.78;;;5.90;;
52618;SDS011;38513;53.234;6.568;2023-05-10T07:58:50;9.23;;;6.47;;
52618;SDS011;38513;53.234;6.568;2023-05-10T08:01:17;10.77;;;7.40;;
52618;SDS011;38513;53.234;6.568;2023-05-10T08:03:43;10.90;;;8.20;;
52618;SDS011;38513;53.234;6.568;2023-05-10T08:06:09;10.52;;;8.48;;
52618;SDS011;38513;53.234;6.568;2023-05-10T08:08:36;11.93;;;9.40;;
52618;SDS011;38513;53.234;6.568;2023-05-10T08:11:03;11.35;;;9.18;;
52618;SDS011;38513;53.234;6.568;2023-05-10T08:13:29;11.32;;;9.20;;
52618;SDS011;38513;53.234;6.568;2023-05-10T08:15:56;12.85;;;10.60;;
52618;SDS011;38513;53.234;6.568;2023-05-10T08:18:22;12.93;;;10.73;;
52618;SDS011;38513;53.234;6.568;2023-05-10T08:20:48;13.75;;;10.75;;
52618;SDS011;38513;53.234;6.568;2023-05-10T08:23:21;12.45;;;9.75;;
52618;SDS011;38513;53.234;6.568;2023-05-10T08:25:47;12.32;;;9.25;;
52618;SDS011;38513;53.234;6.568;2023-05-10T08:28:13;12.68;;;9.25;;
52618;SDS011;38513;53.234;6.568;2023-05-10T08:30:40;11.30;;;9.02;;
52618;SDS011;38513;53.234;6.568;2023-05-10T08:33:06;11.18;;;8.82;;
52618;SDS011;38513;53.234;6.568;2023-05-10T08:35:32;12.65;;;10.27;;
52618;SDS011;38513;53.234;6.568;2023-05-10T08:38:00;15.10;;;11.05;;
52618;SDS011;38513;53.234;6.568;2023-05-10T08:40:27;13.90;;;10.88;;
52618;SDS011;38513;53.234;6.568;2023-05-10T08:43:04;16.73;;;11.93;;
52618;SDS011;38513;53.234;6.568;2023-05-10T08:45:40;15.45;;;11.23;;
52618;SDS011;38513;53.234;6.568;2023-05-10T08:48:07;13.38;;;10.73;;
52618;SDS011;38513;53.234;6.568;2023-05-10T08:50:38;11.32;;;9.10;;
52618;SDS011;38513;53.234;6.568;2023-05-10T08:53:09;11.73;;;8.73;;
52618;SDS011;38513;53.234;6.568;2023-05-10T08:55:35;12.68;;;8.77;;
52618;SDS011;38513;53.234;6.568;2023-05-10T08:58:06;11.68;;;8.40;;
52618;SDS011;38513;53.234;6.568;2023-05-10T09:00:33;11.35;;;8.13;;
52618;SDS011;38513;53.234;6.568;2023-05-10T09:03:00;13.02;;;8.48;;
52618;SDS011;38513;53.234;6.568;2023-05-10T09:05:27;14.02;;;8.10;;
52618;SDS011;38513;53.234;6.568;2023-05-10T09:07:55;13.57;;;8.43;;
52618;SDS011;38513;53.234;6.568;2023-05-10T09:10:22;15.00;;;9.03;;
52618;SDS011;38513;53.234;6.568;2023-05-10T09:12:51;12.88;;;8.73;;
52618;SDS011;38513;53.234;6.568;2023-05-10T09:15:17;12.48;;;8.38;;
52618;SDS011;38513;53.234;6.568;2023-05-10T09:17:45;12.90;;;8.60;;
52618;SDS011;38513;53.234;6.568;2023-05-10T09:20:11;11.43;;;7.78;;
52618;SDS011;38513;53.234;6.568;2023-05-10T09:22:41;11.57;;;8.02;;
52618;SDS011;38513;53.234;6.568;2023-05-10T09:25:08;13.25;;;9.35;;
52618;SDS011;38513;53.234;6.568;2023-05-10T09:27:35;13.20;;;8.82;;
52618;SDS011;38513;53.234;6.568;2023-05-10T09:30:01;11.80;;;9.20;;
52618;SDS011;38513;53.234;6.568;2023-05-10T09:32:38;13.40;;;8.70;;
52618;SDS011;38513;53.234;6.568;2023-05-10T09:35:11;12.38;;;8.27;;
52618;SDS011;38513;53.234;6.568;2023-05-10T09:37:42;11.45;;;8.13;;
52618;SDS011;38513;53.234;6.568;2023-05-10T09:40:13;12.38;;;8.98;;
52618;SDS011;38513;53.234;6.568;2023-05-10T09:42:51;11.65;;;8.65;;
52618;SDS011;38513;53.234;6.568;2023-05-10T09:45:17;11.55;;;7.82;;
52618;SDS011;38513;53.234;6.568;2023-05-10T09:47:43;10.27;;;6.93;;
52618;SDS011;38513;53.234;6.568;2023-05-10T09:50:10;10.80;;;7.55;;
52618;SDS011;38513;53.234;6.568;2023-05-10T09:55:12;10.75;;;6.45;;
52618;SDS011;38513;53.234;6.568;2023-05-10T09:57:38;9.10;;;6.18;;
52618;SDS011;38513;53.234;6.568;2023-05-10T10:00:05;9.70;;;5.82;;
52618;SDS011;38513;53.234;6.568;2023-05-10T10:02:32;9.65;;;5.60;;
52618;SDS011;38513;53.234;6.568;2023-05-10T10:05:01;10.55;;;6.25;;
52618;SDS011;38513;53.234;6.568;2023-05-10T10:07:28;9.75;;;5.55;;
52618;SDS011;38513;53.234;6.568;2023-05-10T10:09:54;8.65;;;5.20;;
52618;SDS011;38513;53.234;6.568;2023-05-10T10:12:21;8.88;;;5.25;;
52618;SDS011;38513;53.234;6.568;2023-05-10T10:14:47;8.85;;;5.22;;
52618;SDS011;38513;53.234;6.568;2023-05-10T10:17:15;8.02;;;4.90;;
52618;SDS011;38513;53.234;6.568;2023-05-10T10:19:42;8.43;;;5.10;;
52618;SDS011;38513;53.234;6.568;2023-05-10T10:22:11;8.80;;;4.70;;
52618;SDS011;38513;53.234;6.568;2023-05-10T10:24:38;9.07;;;4.83;;
52618;SDS011;38513;53.234;6.568;2023-05-10T10:27:15;8.52;;;4.18;;
52618;SDS011;38513;53.234;6.568;2023-05-10T10:29:50;6.93;;;3.95;;
52618;SDS011;38513;53.234;6.568;2023-05-10T10:32:23;6.65;;;3.75;;
52618;SDS011;38513;53.234;6.568;2023-05-10T10:34:51;7.32;;;3.78;;
52618;SDS011;38513;53.234;6.568;2023-05-10T10:37:17;6.10;;;3.47;;
52618;SDS011;38513;53.234;6.568;2023-05-10T10:39:45;6.55;;;3.83;;
52618;SDS011;38513;53.234;6.568;2023-05-10T10:42:13;6.35;;;3.60;;
52618;SDS011;38513;53.234;6.568;2023-05-10T10:44:43;6.75;;;3.83;;
52618;SDS011;38513;53.234;6.568;2023-05-10T10:49:50;7.03;;;4.57;;
52618;SDS011;38513;53.234;6.568;2023-05-10T10:55:56;8.18;;;5.43;;
52618;SDS011;38513;53.234;6.568;2023-05-10T11:14:24;10.30;;;7.53;;
52618;SDS011;38513;53.234;6.568;2023-05-10T11:23:28;14.55;;;10.30;;
52618;SDS011;38513;53.234;6.568;2023-05-10T11:26:09;12.95;;;9.90;;
52618;SDS011;38513;53.234;6.568;2023-05-10T11:28:52;13.18;;;9.02;;
52618;SDS011;38513;53.234;6.568;2023-05-10T11:32:07;12.87;;;9.27;;
52618;SDS011;38513;53.234;6.568;2023-05-10T11:34:33;13.63;;;9.00;;
52618;SDS011;38513;53.234;6.568;2023-05-10T11:37:02;12.60;;;9.52;;
52618;SDS011;38513;53.234;6.568;2023-05-10T11:40:01;14.25;;;10.07;;
52618;SDS011;38513;53.234;6.568;2023-05-10T11:43:14;14.48;;;10.30;;
52618;SDS011;38513;53.234;6.568;2023-05-10T11:45:41;14.05;;;9.57;;
52618;SDS011;38513;53.234;6.568;2023-05-10T11:48:17;15.40;;;10.15;;
52618;SDS011;38513;53.234;6.568;2023-05-10T11:50:47;14.05;;;9.70;;
52618;SDS011;38513;53.234;6.568;2023-05-10T11:53:19;13.68;;;9.85;;
52618;SDS011;38513;53.234;6.568;2023-05-10T11:55:49;14.38;;;9.95;;
52618;SDS011;38513;53.234;6.568;2023-05-10T11:58:27;14.88;;;10.23;;
52618;SDS011;38513;53.234;6.568;2023-05-10T12:00:56;13.82;;;9.70;;
52618;SDS011;38513;53.234;6.568;2023-05-10T12:03:25;14.95;;;10.43;;
52618;SDS011;38513;53.234;6.568;2023-05-10T12:05:52;15.43;;;11.07;;
52618;SDS011;38513;53.234;6.568;2023-05-10T12:08:22;15.35;;;10.27;;
52618;SDS011;38513;53.234;6.568;2023-05-10T12:10:49;16.52;;;11.50;;
52618;SDS011;38513;53.234;6.568;2023-05-10T12:13:16;18.05;;;11.80;;
52618;SDS011;38513;53.234;6.568;2023-05-10T12:15:42;15.38;;;10.75;;
52618;SDS011;38513;53.234;6.568;2023-05-10T12:18:12;14.98;;;10.85;;
52618;SDS011;38513;53.234;6.568;2023-05-10T12:20:39;18.27;;;11.95;;
52618;SDS011;38513;53.234;6.568;2023-05-10T12:23:05;18.53;;;12.63;;
52618;SDS011;38513;53.234;6.568;2023-05-10T12:25:34;16.40;;;11.98;;
52618;SDS011;38513;53.234;6.568;2023-05-10T12:28:03;18.98;;;12.18;;
52618;SDS011;38513;53.234;6.568;2023-05-10T12:30:32;19.67;;;12.77;;
52618;SDS011;38513;53.234;6.568;2023-05-10T12:33:13;20.00;;;13.63;;
52618;SDS011;38513;53.234;6.568;2023-05-10T12:38:25;18.70;;;14.00;;
52618;SDS011;38513;53.234;6.568;2023-05-10T12:40:56;19.25;;;13.32;;
52618;SDS011;38513;53.234;6.568;2023-05-10T12:43:23;18.40;;;12.67;;
52618;SDS011;38513;53.234;6.568;2023-05-10T12:45:50;17.45;;;12.60;;
52618;SDS011;38513;53.234;6.568;2023-05-10T12:48:16;15.82;;;11.95;;
52618;SDS011;38513;53.234;6.568;2023-05-10T12:50:42;16.45;;;11.88;;
52618;SDS011;38513;53.234;6.568;2023-05-10T12:53:08;15.03;;;11.87;;
52618;SDS011;38513;53.234;6.568;2023-05-10T12:55:38;15.00;;;11.13;;
52618;SDS011;38513;53.234;6.568;2023-05-10T12:58:07;16.80;;;11.73;;
52618;SDS011;38513;53.234;6.568;2023-05-10T13:00:34;14.40;;;11.45;;
52618;SDS011;38513;53.234;6.568;2023-05-10T13:03:03;15.65;;;11.45;;
52618;SDS011;38513;53.234;6.568;2023-05-10T13:05:33;14.52;;;11.20;;
52618;SDS011;38513;53.234;6.568;2023-05-10T13:08:03;16.40;;;11.10;;
52618;SDS011;38513;53.234;6.568;2023-05-10T13:10:30;15.27;;;10.95;;
52618;SDS011;38513;53.234;6.568;2023-05-10T13:12:57;15.55;;;10.32;;
52618;SDS011;38513;53.234;6.568;2023-05-10T13:15:23;15.18;;;10.43;;
52618;SDS011;38513;53.234;6.568;2023-05-10T13:17:52;14.27;;;10.40;;
52618;SDS011;38513;53.234;6.568;2023-05-10T13:20:21;14.68;;;10.65;;
52618;SDS011;38513;53.234;6.568;2023-05-10T13:22:47;13.43;;;9.55;;
52618;SDS011;38513;53.234;6.568;2023-05-10T13:25:13;14.25;;;9.55;;
52618;SDS011;38513;53.234;6.568;2023-05-10T13:27:39;13.35;;;9.80;;
52618;SDS011;38513;53.234;6.568;2023-05-10T13:30:06;12.63;;;9.45;;
52618;SDS011;38513;53.234;6.568;2023-05-10T13:32:33;14.48;;;9.27;;
52618;SDS011;38513;53.234;6.568;2023-05-10T13:34:59;12.95;;;8.65;;
52618;SDS011;38513;53.234;6.568;2023-05-10T13:37:31;12.55;;;8.60;;
52618;SDS011;38513;53.234;6.568;2023-05-10T13:40:00;12.63;;;9.00;;
52618;SDS011;38513;53.234;6.568;2023-05-10T13:42:26;12.30;;;8.65;;
52618;SDS011;38513;53.234;6.568;2023-05-10T13:44:56;12.32;;;8.43;;
52618;SDS011;38513;53.234;6.568;2023-05-10T13:47:22;12.90;;;8.95;;
52618;SDS011;38513;53.234;6.568;2023-05-10T13:49:48;13.02;;;8.48;;
52618;SDS011;38513;53.234;6.568;2023-05-10T13:52:14;12.93;;;8.93;;
52618;SDS011;38513;53.234;6.568;2023-05-10T13:54:41;12.77;;;9.02;;
52618;SDS011;38513;53.234;6.568;2023-05-10T13:57:07;12.18;;;8.30;;
52618;SDS011;38513;53.234;6.568;2023-05-10T13:59:34;11.80;;;8.38;;
52618;SDS011;38513;53.234;6.568;2023-05-10T14:02:00;13.35;;;8.50;;
52618;SDS011;38513;53.234;6.568;2023-05-10T14:04:29;12.38;;;8.57;;
52618;SDS011;38513;53.234;6.568;2023-05-10T14:06:56;12.75;;;8.98;;
52618;SDS011;38513;53.234;6.568;2023-05-10T14:09:22;12.68;;;9.43;;
52618;SDS011;38513;53.234;6.568;2023-05-10T14:11:49;13.48;;;9.73;;
52618;SDS011;38513;53.234;6.568;2023-05-10T14:14:18;15.65;;;10.70;;
52618;SDS011;38513;53.234;6.568;2023-05-10T14:16:45;15.25;;;10.07;;
52618;SDS011;38513;53.234;6.568;2023-05-10T14:19:11;15.18;;;10.05;;
52618;SDS011;38513;53.234;6.568;2023-05-10T14:21:37;13.68;;;9.40;;
52618;SDS011;38513;53.234;6.568;2023-05-10T14:24:04;13.25;;;9.45;;
52618;SDS011;38513;53.234;6.568;2023-05-10T14:26:36;14.75;;;9.93;;
52618;SDS011;38513;53.234;6.568;2023-05-10T14:29:02;14.32;;;9.63;;
52618;SDS011;38513;53.234;6.568;2023-05-10T14:31:29;14.55;;;9.93;;
52618;SDS011;38513;53.234;6.568;2023-05-10T14:33:55;13.67;;;9.83;;
52618;SDS011;38513;53.234;6.568;2023-05-10T14:36:22;13.77;;;9.88;;
52618;SDS011;38513;53.234;6.568;2023-05-10T14:38:48;14.13;;;10.20;;
52618;SDS011;38513;53.234;6.568;2023-05-10T14:41:15;13.35;;;9.27;;
52618;SDS011;38513;53.234;6.568;2023-05-10T14:43:42;13.85;;;10.00;;
52618;SDS011;38513;53.234;6.568;2023-05-10T14:46:09;14.35;;;10.98;;
52618;SDS011;38513;53.234;6.568;2023-05-10T14:48:35;14.85;;;10.80;;
52618;SDS011;38513;53.234;6.568;2023-05-10T14:51:01;14.75;;;11.30;;
52618;SDS011;38513;53.234;6.568;2023-05-10T14:53:28;16.13;;;11.68;;
52618;SDS011;38513;53.234;6.568;2023-05-10T14:55:54;15.68;;;11.88;;
52618;SDS011;38513;53.234;6.568;2023-05-10T14:58:20;16.15;;;12.02;;
52618;SDS011;38513;53.234;6.568;2023-05-10T15:00:46;16.13;;;11.38;;
52618;SDS011;38513;53.234;6.568;2023-05-10T15:03:13;14.07;;;11.25;;
52618;SDS011;38513;53.234;6.568;2023-05-10T15:05:39;16.63;;;11.57;;
52618;SDS011;38513;53.234;6.568;2023-05-10T15:08:05;15.95;;;11.65;;
52618;SDS011;38513;53.234;6.568;2023-05-10T15:10:34;18.55;;;11.98;;
52618;SDS011;38513;53.234;6.568;2023-05-10T15:13:03;15.55;;;12.05;;
52618;SDS011;38513;53.234;6.568;2023-05-10T15:15:31;15.00;;;11.13;;
52618;SDS011;38513;53.234;6.568;2023-05-10T15:17:57;15.98;;;11.30;;
52618;SDS011;38513;53.234;6.568;2023-05-10T15:20:23;15.85;;;12.23;;
52618;SDS011;38513;53.234;6.568;2023-05-10T15:22:50;17.00;;;12.00;;
52618;SDS011;38513;53.234;6.568;2023-05-10T15:25:16;16.40;;;12.13;;